< < Back
Terminal Aerodrome Forecast


Current Version              Previous Versions:   1  2  3  4  5  6  7  8  9  

Terminal Aerodrome Forecast

933
FTUS42 KGSP 271908 AAC
TAFGSP
TAF AMD
KGSP 271908Z 2719/2818 33012G20KT P6SM FEW140
     FM280200 36004KT P6SM SKC=

Latest METAR

995
SAUS70 KWBC 280400 RRD
MTRGSP
METAR KGSP 280353Z 33012G20KT 10SM CLR 02/M05 A3002 RMK AO2 SLP167
T00171050


USA.gov is the U.S. government's official web portal to all federal, state and local government web resources and services.